Time;durP1;ratioP1;P1;durP2;ratioP2;P2;SDS_P1;SDS_P2;PMS_P1;PMS_P2;Temp;Humidity;BMP_temperature;BMP_pressure;BME280_temperature;BME280_humidity;BME280_pressure;Samples;Min_cycle;Max_cycle;Signal;HPM_P1;HPM_P2
2023/10/30 00:01:28;;;;;;;0.10;0.10;;;9.80;99.90;;;;;;5084698;28;20035;-70
2023/10/30 00:03:54;;;;;;;0.20;0.20;;;9.70;99.90;;;;;;5084179;28;20043;-70
2023/10/30 00:06:20;;;;;;;0.30;0.30;;;9.70;99.90;;;;;;5082447;28;20059;-69
2023/10/30 00:08:45;;;;;;;0.10;0.10;;;9.70;99.90;;;;;;5083845;28;20036;-70
2023/10/30 00:11:11;;;;;;;0.10;0.10;;;9.60;99.90;;;;;;5117499;27;20036;-70
2023/10/30 00:13:36;;;;;;;0.10;0.10;;;9.60;99.90;;;;;;5067274;28;20123;-70
2023/10/30 00:16:02;;;;;;;0.20;0.20;;;9.60;99.90;;;;;;5084587;28;20048;-70
2023/10/30 00:18:28;;;;;;;0.25;0.25;;;9.60;99.90;;;;;;5081966;28;20101;-70
2023/10/30 00:20:54;;;;;;;0.28;0.25;;;9.50;99.90;;;;;;5114735;28;20035;-70
2023/10/30 00:23:19;;;;;;;1.17;0.52;;;9.50;99.90;;;;;;5082453;28;20036;-70
2023/10/30 00:25:45;;;;;;;0.32;0.32;;;9.50;99.90;;;;;;5084934;28;20063;-70
2023/10/30 00:28:10;;;;;;;0.10;0.10;;;9.50;99.90;;;;;;5080383;28;20497;-69
2023/10/30 00:30:36;;;;;;;0.30;0.30;;;9.50;99.90;;;;;;5080633;28;20040;-69
2023/10/30 00:33:01;;;;;;;0.20;0.20;;;9.50;99.90;;;;;;5082715;28;20036;-70
2023/10/30 00:35:27;;;;;;;0.38;0.38;;;9.50;99.90;;;;;;5090145;28;20163;-70
2023/10/30 00:37:53;;;;;;;0.20;0.20;;;9.50;99.90;;;;;;5083420;28;20046;-70
2023/10/30 00:40:19;;;;;;;0.00;0.00;;;9.50;99.90;;;;;;5088519;28;20545;-70
2023/10/30 00:42:44;;;;;;;0.55;0.55;;;9.50;99.90;;;;;;5081895;28;20122;-70
2023/10/30 00:45:10;;;;;;;0.10;0.10;;;9.50;99.90;;;;;;5084688;28;20130;-70
2023/10/30 00:47:38;;;;;;;0.08;0.08;;;9.40;99.90;;;;;;5079133;28;20063;-70
2023/10/30 00:50:05;;;;;;;2.10;0.38;;;9.40;99.90;;;;;;5086265;28;20398;-70
2023/10/30 00:52:31;;;;;;;0.10;0.10;;;9.40;99.90;;;;;;5113537;28;20131;-70
2023/10/30 00:54:56;;;;;;;0.45;0.20;;;9.40;99.90;;;;;;5077249;28;20103;-70
2023/10/30 00:57:22;;;;;;;0.43;0.43;;;9.50;99.90;;;;;;5077512;28;20182;-71
2023/10/30 00:59:48;;;;;;;0.30;0.30;;;9.50;99.90;;;;;;5112339;28;20046;-69
2023/10/30 01:02:14;;;;;;;0.32;0.32;;;9.50;99.90;;;;;;5085017;28;20551;-69
2023/10/30 01:04:39;;;;;;;0.10;0.10;;;9.50;99.90;;;;;;5085845;27;20040;-70
2023/10/30 01:07:05;;;;;;;0.20;0.20;;;9.50;99.90;;;;;;5082390;28;20067;-70
2023/10/30 01:09:30;;;;;;;0.00;0.00;;;9.50;99.90;;;;;;5082117;27;20449;-70
2023/10/30 01:11:56;;;;;;;0.20;0.20;;;9.50;99.90;;;;;;5085570;28;20040;-70
2023/10/30 01:14:23;;;;;;;0.17;0.10;;;9.50;99.90;;;;;;5086553;28;20048;-69
2023/10/30 01:16:49;;;;;;;0.10;0.10;;;9.50;99.90;;;;;;5082859;28;20365;-70
2023/10/30 01:19:15;;;;;;;0.65;0.65;;;9.50;99.90;;;;;;5115635;27;20070;-70
2023/10/30 01:21:40;;;;;;;1.75;0.98;;;9.50;99.90;;;;;;5085273;27;20042;-70
2023/10/30 01:24:06;;;;;;;0.50;0.10;;;9.50;99.90;;;;;;5069232;27;20486;-69
2023/10/30 01:26:32;;;;;;;0.20;0.20;;;9.50;99.90;;;;;;5068521;27;20086;-70
2023/10/30 01:28:58;;;;;;;0.63;0.20;;;9.50;99.90;;;;;;5118248;27;20798;-70
2023/10/30 01:31:27;;;;;;;0.20;0.20;;;9.50;99.90;;;;;;5117326;27;20367;-70
2023/10/30 01:33:56;;;;;;;0.65;0.65;;;9.40;99.90;;;;;;5123631;27;20440;-70
2023/10/30 01:36:23;;;;;;;0.40;0.20;;;9.40;99.90;;;;;;5090204;28;20055;-69
2023/10/30 01:38:48;;;;;;;0.00;0.00;;;9.40;99.90;;;;;;5084906;28;20123;-69
2023/10/30 01:41:14;;;;;;;0.00;0.00;;;9.40;99.90;;;;;;5086047;28;20133;-70
2023/10/30 01:43:39;;;;;;;0.08;0.08;;;9.40;99.90;;;;;;5082509;28;20569;-71
2023/10/30 01:46:08;;;;;;;0.10;0.10;;;9.40;99.90;;;;;;5082801;28;20529;-70
2023/10/30 01:48:35;;;;;;;0.43;0.43;;;9.40;99.90;;;;;;5079297;28;20046;-70
2023/10/30 01:51:01;;;;;;;0.22;0.22;;;9.40;99.90;;;;;;5088750;28;20039;-70
2023/10/30 01:53:32;;;;;;;0.10;0.10;;;9.40;99.90;;;;;;5081194;28;20035;-70
2023/10/30 01:55:59;;;;;;;0.10;0.10;;;9.30;99.90;;;;;;5085199;28;20076;-69
2023/10/30 01:58:25;;;;;;;0.13;0.13;;;9.30;99.90;;;;;;5079005;28;20123;-70
2023/10/30 02:00:53;;;;;;;0.10;0.10;;;9.30;99.90;;;;;;5084917;27;20036;-69
2023/10/30 02:03:18;;;;;;;0.55;0.20;;;9.30;99.90;;;;;;5082068;28;20134;-70
2023/10/30 02:05:44;;;;;;;0.20;0.20;;;9.30;99.90;;;;;;5085876;27;20161;-70
2023/10/30 02:08:11;;;;;;;0.22;0.20;;;9.30;99.90;;;;;;5082865;28;20035;-70
2023/10/30 02:10:37;;;;;;;0.30;0.22;;;9.30;99.90;;;;;;5084643;28;20047;-70
2023/10/30 02:13:09;;;;;;;0.17;0.17;;;9.30;99.90;;;;;;5113088;27;20518;-69
2023/10/30 02:15:35;;;;;;;1.45;0.30;;;9.20;99.90;;;;;;5126247;27;20043;-70
2023/10/30 02:18:01;;;;;;;0.20;0.20;;;9.30;99.90;;;;;;5085927;28;20501;-70
2023/10/30 02:20:27;;;;;;;0.10;0.10;;;9.30;99.90;;;;;;5088034;28;20054;-69
2023/10/30 02:22:53;;;;;;;0.50;0.50;;;9.30;99.90;;;;;;5109051;28;20387;-70
2023/10/30 02:25:19;;;;;;;0.20;0.20;;;9.30;99.90;;;;;;5082240;28;20046;-70
2023/10/30 02:27:45;;;;;;;0.20;0.20;;;9.30;99.90;;;;;;5083190;28;20117;-70
2023/10/30 02:30:11;;;;;;;0.00;0.00;;;9.30;99.90;;;;;;5084646;28;20509;-70
2023/10/30 02:32:42;;;;;;;0.10;0.10;;;9.40;99.90;;;;;;5066018;28;20122;-69
2023/10/30 02:35:15;;;;;;;1.88;0.57;;;9.40;99.90;;;;;;5090949;28;20096;-70
2023/10/30 02:37:41;;;;;;;0.08;0.00;;;9.40;99.90;;;;;;5126621;27;20497;-70
2023/10/30 02:40:08;;;;;;;0.43;0.43;;;9.40;99.90;;;;;;5112823;27;20100;-69
2023/10/30 02:42:34;;;;;;;0.20;0.20;;;9.40;99.90;;;;;;5090967;28;20418;-70
2023/10/30 02:45:00;;;;;;;2.17;0.98;;;9.40;99.90;;;;;;5086124;28;20040;-69
2023/10/30 02:47:25;;;;;;;0.00;0.00;;;9.50;99.90;;;;;;5081051;28;20039;-70
2023/10/30 02:49:51;;;;;;;2.20;0.22;;;9.50;99.90;;;;;;5087325;28;20490;-69
2023/10/30 02:52:20;;;;;;;0.10;0.10;;;9.50;99.90;;;;;;5091059;27;20028;-69
2023/10/30 02:54:46;;;;;;;0.30;0.13;;;9.50;99.90;;;;;;5103920;28;20034;-67
2023/10/30 02:57:13;;;;;;;0.32;0.32;;;9.50;99.90;;;;;;5086121;28;20066;-69
2023/10/30 02:59:39;;;;;;;0.38;0.38;;;9.50;99.90;;;;;;5124141;27;21712;-70
2023/10/30 03:02:04;;;;;;;0.52;0.20;;;9.60;99.90;;;;;;5116871;27;20048;-70
2023/10/30 03:04:30;;;;;;;0.20;0.20;;;9.50;99.90;;;;;;5085730;28;20063;-70
2023/10/30 03:06:58;;;;;;;0.35;0.35;;;9.50;99.90;;;;;;5083645;28;20205;-69
2023/10/30 03:09:35;;;;;;;0.20;0.20;;;9.60;99.90;;;;;;5088915;28;20039;-69
2023/10/30 03:12:01;;;;;;;0.10;0.10;;;9.60;99.90;;;;;;5089910;28;20031;-69
2023/10/30 03:14:26;;;;;;;0.20;0.20;;;9.60;99.90;;;;;;5083360;28;20034;-71
2023/10/30 03:16:53;;;;;;;2.10;0.55;;;9.60;99.90;;;;;;5087267;27;20517;-70
2023/10/30 03:19:18;;;;;;;0.10;0.10;;;9.60;99.90;;;;;;5084925;28;20510;-68
2023/10/30 03:21:44;;;;;;;0.20;0.20;;;9.60;99.90;;;;;;5082775;28;20085;-69
2023/10/30 03:24:10;;;;;;;0.10;0.10;;;9.60;99.90;;;;;;5085286;28;20038;-69
2023/10/30 03:26:35;;;;;;;0.20;0.10;;;9.60;99.90;;;;;;5083478;28;20739;-69
2023/10/30 03:29:01;;;;;;;0.10;0.10;;;9.60;99.90;;;;;;5083266;28;20047;-70
2023/10/30 03:31:27;;;;;;;0.35;0.35;;;9.60;99.90;;;;;;5116618;27;20033;-69
2023/10/30 03:33:53;;;;;;;0.55;0.43;;;9.60;99.90;;;;;;5083865;28;20425;-69
2023/10/30 03:36:23;;;;;;;0.20;0.20;;;9.60;99.90;;;;;;5084230;28;20048;-70
2023/10/30 03:38:50;;;;;;;1.65;0.20;;;9.60;99.90;;;;;;5075976;28;20443;-70
2023/10/30 03:41:17;;;;;;;0.10;0.10;;;9.60;99.90;;;;;;5081913;28;20042;-71
2023/10/30 03:43:42;;;;;;;1.38;1.27;;;9.60;99.90;;;;;;5084163;28;20043;-68
2023/10/30 03:46:08;;;;;;;0.32;0.32;;;9.60;99.90;;;;;;5069068;28;20044;-70
2023/10/30 03:48:34;;;;;;;1.08;1.08;;;9.60;99.90;;;;;;5077621;28;20036;-70
2023/10/30 03:50:59;;;;;;;0.00;0.00;;;9.60;99.90;;;;;;5079100;28;20043;-70
2023/10/30 03:53:25;;;;;;;1.13;0.10;;;9.60;99.90;;;;;;5080953;28;20044;-70
2023/10/30 03:55:50;;;;;;;0.03;0.03;;;9.60;99.90;;;;;;5085508;28;20047;-69
2023/10/30 03:58:16;;;;;;;0.77;0.77;;;9.60;99.90;;;;;;5080117;28;20044;-70
2023/10/30 04:00:42;;;;;;;0.05;0.05;;;9.60;99.90;;;;;;5090092;28;20039;-70
2023/10/30 04:03:08;;;;;;;0.10;0.10;;;9.60;99.90;;;;;;5080006;28;20039;-69
2023/10/30 04:05:34;;;;;;;0.13;0.13;;;9.60;99.90;;;;;;5087617;28;20047;-69
2023/10/30 04:08:00;;;;;;;0.00;0.00;;;9.60;99.90;;;;;;5084715;28;20039;-70
2023/10/30 04:10:26;;;;;;;0.10;0.05;;;9.60;99.90;;;;;;5084954;28;20054;-69
2023/10/30 04:12:51;;;;;;;0.10;0.10;;;9.50;99.90;;;;;;5079593;28;20039;-70
2023/10/30 04:15:18;;;;;;;0.10;0.10;;;9.60;99.90;;;;;;5086222;28;20489;-70
2023/10/30 04:17:44;;;;;;;0.38;0.38;;;9.60;99.90;;;;;;5082863;28;20043;-69
2023/10/30 04:20:10;;;;;;;0.82;0.80;;;9.50;99.90;;;;;;5099934;28;20051;-70
2023/10/30 04:22:35;;;;;;;0.10;0.10;;;9.60;99.90;;;;;;5083490;28;20027;-70
2023/10/30 04:25:02;;;;;;;0.10;0.10;;;9.50;99.90;;;;;;5080716;28;20119;-70
2023/10/30 04:27:28;;;;;;;0.15;0.15;;;9.50;99.90;;;;;;5098588;28;20091;-69
2023/10/30 04:29:53;;;;;;;0.10;0.10;;;9.50;99.90;;;;;;5082845;28;20040;-70
2023/10/30 04:32:19;;;;;;;0.43;0.43;;;9.50;99.90;;;;;;5082352;28;20036;-70
2023/10/30 04:34:44;;;;;;;0.10;0.10;;;9.50;99.90;;;;;;5081520;28;20039;-70
2023/10/30 04:37:10;;;;;;;0.10;0.10;;;9.50;99.90;;;;;;5087998;28;20040;-70
2023/10/30 04:39:35;;;;;;;0.10;0.10;;;9.40;99.90;;;;;;5087481;28;20128;-70
2023/10/30 04:42:01;;;;;;;0.57;0.20;;;9.40;99.90;;;;;;5082181;28;20044;-70
2023/10/30 04:44:27;;;;;;;0.20;0.20;;;9.40;99.90;;;;;;5090168;27;20089;-69
2023/10/30 04:46:52;;;;;;;0.13;0.13;;;9.40;99.90;;;;;;5085688;28;20487;-70
2023/10/30 04:49:18;;;;;;;0.20;0.20;;;9.40;99.90;;;;;;5088734;27;20545;-70
2023/10/30 04:51:43;;;;;;;1.65;0.20;;;9.30;99.90;;;;;;5083977;27;20040;-70
2023/10/30 04:54:09;;;;;;;1.63;0.68;;;9.30;99.90;;;;;;5124420;27;20046;-70
2023/10/30 04:56:34;;;;;;;0.20;0.20;;;9.30;99.90;;;;;;5117347;27;20039;-70
2023/10/30 04:59:00;;;;;;;3.00;0.90;;;9.30;99.90;;;;;;5088796;28;20051;-69
2023/10/30 05:01:26;;;;;;;0.00;0.00;;;9.30;99.90;;;;;;5090705;28;20044;-70
2023/10/30 05:03:51;;;;;;;0.03;0.03;;;9.30;99.90;;;;;;5119312;27;20051;-70
2023/10/30 05:06:17;;;;;;;0.00;0.00;;;9.30;99.90;;;;;;5084159;28;20490;-70
2023/10/30 05:08:43;;;;;;;0.10;0.10;;;9.30;99.90;;;;;;5084319;28;20085;-70
2023/10/30 05:11:09;;;;;;;0.10;0.10;;;9.20;99.90;;;;;;5085513;28;20084;-70
2023/10/30 05:13:35;;;;;;;0.65;0.30;;;9.20;99.90;;;;;;5085688;28;20474;-70
2023/10/30 05:16:01;;;;;;;0.10;0.10;;;9.20;99.90;;;;;;5117501;27;20490;-70
2023/10/30 05:18:29;;;;;;;0.40;0.40;;;9.20;99.90;;;;;;5119253;27;20035;-69
2023/10/30 05:20:55;;;;;;;0.75;0.40;;;9.20;99.90;;;;;;5087399;28;20039;-69
2023/10/30 05:23:21;;;;;;;2.38;0.20;;;9.20;99.90;;;;;;5084510;28;20117;-69
2023/10/30 05:25:46;;;;;;;0.17;0.17;;;9.10;99.90;;;;;;5082361;28;20436;-70
2023/10/30 05:28:12;;;;;;;0.30;0.30;;;9.20;99.90;;;;;;5085151;27;20093;-70
2023/10/30 05:30:38;;;;;;;0.75;0.75;;;9.10;99.90;;;;;;5087620;28;20031;-69
2023/10/30 05:33:04;;;;;;;0.08;0.08;;;9.10;99.90;;;;;;5085517;28;20039;-70
2023/10/30 05:35:30;;;;;;;0.10;0.10;;;9.10;99.90;;;;;;5086223;28;20640;-70
2023/10/30 05:37:56;;;;;;;2.03;1.92;;;9.10;99.90;;;;;;5084954;28;20475;-70
2023/10/30 05:40:22;;;;;;;0.10;0.10;;;9.10;99.90;;;;;;5084329;28;20040;-70
2023/10/30 05:42:48;;;;;;;0.10;0.10;;;9.10;99.90;;;;;;5086454;28;20398;-69
2023/10/30 05:45:13;;;;;;;0.00;0.00;;;9.20;99.90;;;;;;5083668;28;20528;-69
2023/10/30 05:47:39;;;;;;;0.10;0.10;;;9.20;99.90;;;;;;5081759;27;20782;-69
2023/10/30 05:50:05;;;;;;;0.10;0.10;;;9.10;99.90;;;;;;5087486;27;20047;-69
2023/10/30 05:52:31;;;;;;;0.10;0.10;;;9.10;99.90;;;;;;5087127;28;20036;-70
2023/10/30 05:54:56;;;;;;;0.05;0.05;;;9.10;99.90;;;;;;5087751;28;20055;-70
2023/10/30 05:57:22;;;;;;;0.10;0.10;;;9.10;99.90;;;;;;5083187;28;20577;-70
2023/10/30 05:59:48;;;;;;;0.10;0.10;;;9.10;99.90;;;;;;5081953;27;20048;-69
2023/10/30 06:02:15;;;;;;;0.08;0.08;;;9.10;99.90;;;;;;5115357;27;20043;-70
2023/10/30 06:04:40;;;;;;;0.57;0.30;;;9.20;99.90;;;;;;5071085;28;20035;-69
2023/10/30 06:07:06;;;;;;;0.10;0.10;;;9.20;99.90;;;;;;5082079;28;20044;-70
2023/10/30 06:09:32;;;;;;;0.20;0.20;;;9.20;99.90;;;;;;5104259;27;20027;-69
2023/10/30 06:11:57;;;;;;;0.10;0.10;;;9.30;99.90;;;;;;5079861;27;20067;-70
2023/10/30 06:14:23;;;;;;;0.47;0.47;;;9.30;99.90;;;;;;5121212;27;20043;-70
2023/10/30 06:16:49;;;;;;;0.03;0.03;;;9.40;99.90;;;;;;5077869;28;20523;-70
2023/10/30 06:19:15;;;;;;;0.20;0.20;;;9.40;99.90;;;;;;5092177;28;20054;-69
2023/10/30 06:21:43;;;;;;;0.32;0.30;;;9.40;99.90;;;;;;5085201;28;20047;-69
2023/10/30 06:24:09;;;;;;;0.00;0.00;;;9.40;99.90;;;;;;5077300;28;20505;-70
2023/10/30 06:26:40;;;;;;;0.20;0.20;;;9.40;99.90;;;;;;5086958;28;20040;-69
2023/10/30 06:29:06;;;;;;;0.70;0.40;;;9.40;99.90;;;;;;5111202;27;20055;-70
2023/10/30 06:31:31;;;;;;;0.10;0.10;;;9.50;99.90;;;;;;5086973;28;20115;-69
2023/10/30 06:33:57;;;;;;;0.32;0.32;;;9.50;99.90;;;;;;5081819;28;20039;-69
2023/10/30 06:36:22;;;;;;;0.10;0.10;;;9.60;99.90;;;;;;5096025;27;20409;-69
2023/10/30 06:38:48;;;;;;;0.80;0.80;;;9.60;99.90;;;;;;5105397;28;20067;-69
2023/10/30 06:41:14;;;;;;;2.00;0.32;;;9.60;99.90;;;;;;5092487;28;20043;-69
2023/10/30 06:43:39;;;;;;;0.20;0.20;;;9.60;99.90;;;;;;5088436;28;20032;-69
2023/10/30 06:46:05;;;;;;;0.10;0.10;;;9.70;99.90;;;;;;5088189;27;20463;-69
2023/10/30 06:48:32;;;;;;;0.10;0.10;;;9.70;99.90;;;;;;5115012;27;20130;-70
2023/10/30 06:50:57;;;;;;;0.20;0.20;;;9.80;99.90;;;;;;5081652;28;20511;-70
2023/10/30 06:53:23;;;;;;;0.13;0.10;;;9.80;99.90;;;;;;5087082;28;20047;-69
2023/10/30 06:55:50;;;;;;;2.40;0.75;;;9.80;99.90;;;;;;5087099;28;20039;-70
2023/10/30 06:58:16;;;;;;;0.38;0.15;;;9.90;99.90;;;;;;5115766;27;20040;-69
2023/10/30 07:00:42;;;;;;;0.00;0.00;;;9.90;99.90;;;;;;5084046;28;20036;-70
2023/10/30 07:03:08;;;;;;;0.55;0.20;;;9.80;99.90;;;;;;5087119;28;20043;-69
2023/10/30 07:05:34;;;;;;;0.17;0.17;;;9.90;99.90;;;;;;5084402;28;20035;-70
2023/10/30 07:07:59;;;;;;;0.10;0.05;;;9.90;99.90;;;;;;5082787;28;20132;-70
2023/10/30 07:10:25;;;;;;;0.20;0.10;;;9.90;99.90;;;;;;5086285;28;20039;-69
2023/10/30 07:12:50;;;;;;;0.10;0.10;;;10.00;99.90;;;;;;5085286;27;20494;-69
2023/10/30 07:15:16;;;;;;;0.82;0.20;;;10.00;99.90;;;;;;5086157;28;20449;-69
2023/10/30 07:17:42;;;;;;;1.80;0.25;;;10.00;99.90;;;;;;5084902;28;20027;-70
2023/10/30 07:20:08;;;;;;;0.00;0.00;;;10.00;99.90;;;;;;5079768;28;20159;-69
2023/10/30 07:22:34;;;;;;;0.38;0.32;;;10.00;99.90;;;;;;5084992;28;20039;-69
2023/10/30 07:25:00;;;;;;;1.23;0.88;;;10.00;99.90;;;;;;5081970;28;20500;-70
2023/10/30 07:27:26;;;;;;;0.00;0.00;;;10.10;99.90;;;;;;5112394;27;20050;-69
2023/10/30 07:29:52;;;;;;;1.30;0.55;;;10.10;99.90;;;;;;5083575;27;20031;-69
2023/10/30 07:32:18;;;;;;;2.03;0.28;;;10.20;99.90;;;;;;5106176;27;20406;-69
2023/10/30 07:34:44;;;;;;;0.20;0.20;;;10.20;99.90;;;;;;5089162;28;20078;-69
2023/10/30 07:37:10;;;;;;;0.10;0.10;;;10.20;99.90;;;;;;5083205;27;20043;-70
2023/10/30 07:39:35;;;;;;;1.45;1.08;;;10.20;99.90;;;;;;5091670;27;20043;-69
2023/10/30 07:42:01;;;;;;;1.45;0.45;;;10.20;99.90;;;;;;5079763;28;20040;-68
2023/10/30 07:44:27;;;;;;;1.75;0.35;;;10.30;99.90;;;;;;5085418;27;20035;-69
2023/10/30 07:46:52;;;;;;;0.20;0.20;;;10.30;99.90;;;;;;5087522;28;20040;-70
2023/10/30 07:49:18;;;;;;;0.10;0.10;;;10.30;99.90;;;;;;5082626;27;20044;-69
2023/10/30 07:51:44;;;;;;;0.45;0.20;;;10.30;99.90;;;;;;5080540;28;20604;-69
2023/10/30 07:54:09;;;;;;;0.10;0.10;;;10.40;99.90;;;;;;5084982;28;20050;-69
2023/10/30 07:56:35;;;;;;;0.20;0.20;;;10.40;99.90;;;;;;5087050;28;20043;-70
2023/10/30 07:59:00;;;;;;;0.10;0.10;;;10.40;99.90;;;;;;5083723;28;20048;-69
2023/10/30 08:01:26;;;;;;;0.38;0.38;;;10.50;99.90;;;;;;5090389;28;20036;-70
2023/10/30 08:03:52;;;;;;;0.88;0.55;;;10.50;99.90;;;;;;5086358;28;20039;-70
2023/10/30 08:06:17;;;;;;;0.10;0.10;;;10.50;99.90;;;;;;5087611;28;20392;-69
2023/10/30 08:08:43;;;;;;;0.50;0.25;;;10.60;99.90;;;;;;5086350;28;20419;-70
2023/10/30 08:11:09;;;;;;;0.10;0.10;;;10.60;99.90;;;;;;5088457;28;20177;-69
2023/10/30 08:13:35;;;;;;;0.35;0.35;;;10.70;99.90;;;;;;5125911;27;20477;-70
2023/10/30 08:16:05;;;;;;;0.00;0.00;;;10.70;99.90;;;;;;5096251;28;20042;-69
2023/10/30 08:18:30;;;;;;;0.20;0.20;;;10.70;99.90;;;;;;5071080;28;20182;-70
2023/10/30 08:20:58;;;;;;;0.00;0.00;;;10.80;99.90;;;;;;5084130;28;20133;-69
2023/10/30 08:23:23;;;;;;;0.70;0.20;;;10.80;99.90;;;;;;5099472;28;20054;-68
2023/10/30 08:25:49;;;;;;;0.45;0.30;;;10.90;99.90;;;;;;5083074;28;20040;-70
2023/10/30 08:28:14;;;;;;;0.15;0.15;;;10.90;99.90;;;;;;5086240;28;20046;-70
2023/10/30 08:30:41;;;;;;;0.10;0.10;;;10.90;99.90;;;;;;5093564;28;20069;-70
2023/10/30 08:33:06;;;;;;;0.22;0.22;;;11.00;99.90;;;;;;5106711;28;20101;-70
2023/10/30 08:35:32;;;;;;;0.10;0.10;;;11.00;99.90;;;;;;5083478;28;20035;-70
2023/10/30 08:37:58;;;;;;;0.10;0.10;;;11.10;99.90;;;;;;5079093;28;20055;-70
2023/10/30 08:40:24;;;;;;;0.75;0.60;;;11.10;99.90;;;;;;5077816;28;20074;-70
2023/10/30 08:42:50;;;;;;;0.28;0.28;;;11.10;99.90;;;;;;5106559;28;20421;-69
2023/10/30 08:45:16;;;;;;;0.15;0.15;;;11.10;99.90;;;;;;5085584;28;20489;-70
2023/10/30 08:47:43;;;;;;;0.10;0.10;;;11.20;99.90;;;;;;5080156;28;20036;-70
2023/10/30 08:50:10;;;;;;;0.00;0.00;;;11.30;99.90;;;;;;5111810;28;20046;-69
2023/10/30 08:52:35;;;;;;;0.00;0.00;;;11.30;99.90;;;;;;5111393;28;20047;-70
2023/10/30 08:55:01;;;;;;;0.00;0.00;;;11.40;99.90;;;;;;5110631;28;20389;-70
2023/10/30 08:57:27;;;;;;;5.80;0.32;;;11.40;99.90;;;;;;5086979;28;20050;-70
2023/10/30 08:59:52;;;;;;;0.55;0.55;;;11.50;99.90;;;;;;5072473;28;20039;-70
2023/10/30 09:02:18;;;;;;;0.20;0.20;;;11.50;99.90;;;;;;5071345;28;20048;-71
2023/10/30 09:04:44;;;;;;;0.30;0.28;;;11.60;99.90;;;;;;5077609;28;20035;-71
2023/10/30 09:07:10;;;;;;;0.43;0.20;;;11.60;99.90;;;;;;5085541;28;20050;-70
2023/10/30 09:09:35;;;;;;;4.68;0.25;;;11.70;99.90;;;;;;5084274;28;20383;-71
2023/10/30 09:12:01;;;;;;;1.83;0.17;;;11.80;99.90;;;;;;5082228;28;20035;-71
2023/10/30 09:14:27;;;;;;;0.38;0.38;;;11.80;99.90;;;;;;5085976;28;20456;-70
2023/10/30 09:16:53;;;;;;;0.10;0.10;;;11.90;99.90;;;;;;5119303;28;20040;-72
2023/10/30 09:19:19;;;;;;;0.32;0.32;;;12.00;99.90;;;;;;5079222;28;20091;-70
2023/10/30 09:21:45;;;;;;;0.30;0.30;;;12.10;99.90;;;;;;5081285;28;20406;-70
2023/10/30 09:24:11;;;;;;;0.00;0.00;;;12.30;99.90;;;;;;5094064;28;20147;-71
2023/10/30 09:26:36;;;;;;;0.43;0.43;;;12.30;99.90;;;;;;5087780;28;20039;-69
2023/10/30 09:29:02;;;;;;;0.75;0.28;;;12.30;99.90;;;;;;5080197;28;20040;-70
2023/10/30 09:31:30;;;;;;;1.08;1.00;;;12.30;99.90;;;;;;5085691;27;20051;-70
2023/10/30 09:33:57;;;;;;;0.10;0.10;;;12.40;99.90;;;;;;5085262;28;20043;-70
2023/10/30 09:36:22;;;;;;;0.17;0.17;;;12.40;99.90;;;;;;5095101;27;20046;-71
2023/10/30 09:38:48;;;;;;;0.55;0.20;;;12.30;99.90;;;;;;5097849;28;20039;-70
2023/10/30 09:41:17;;;;;;;5.28;2.00;;;12.20;99.90;;;;;;5082220;28;20051;-70
2023/10/30 09:43:44;;;;;;;0.00;0.00;;;12.20;99.90;;;;;;5086111;28;20071;-70
2023/10/30 09:46:11;;;;;;;0.43;0.43;;;12.10;99.90;;;;;;5087819;27;20051;-70
2023/10/30 09:48:38;;;;;;;0.20;0.20;;;12.00;99.90;;;;;;5073659;28;20040;-70
2023/10/30 09:51:06;;;;;;;0.05;0.05;;;12.00;99.90;;;;;;5079397;28;20122;-69
2023/10/30 09:53:33;;;;;;;0.35;0.35;;;11.90;99.90;;;;;;5081111;27;20079;-69
2023/10/30 09:56:00;;;;;;;0.55;0.55;;;11.90;99.90;;;;;;5091317;28;20071;-70
2023/10/30 09:58:25;;;;;;;2.33;0.47;;;11.80;99.90;;;;;;5090251;28;20378;-70
2023/10/30 10:00:51;;;;;;;0.10;0.10;;;11.80;99.90;;;;;;5083657;28;20043;-70
2023/10/30 10:03:17;;;;;;;0.10;0.10;;;11.80;99.90;;;;;;5089628;28;20044;-70
2023/10/30 10:05:42;;;;;;;0.20;0.15;;;11.80;99.90;;;;;;5094050;28;20078;-70
2023/10/30 10:08:08;;;;;;;0.30;0.30;;;11.80;99.90;;;;;;5088488;28;20131;-70
2023/10/30 10:10:54;;;;;;;0.63;0.63;;;11.80;99.90;;;;;;5089701;28;20026;-69
2023/10/30 10:13:20;;;;;;;0.10;0.10;;;11.90;99.90;;;;;;5089493;28;20123;-69
2023/10/30 10:15:46;;;;;;;0.05;0.05;;;12.00;99.90;;;;;;5091801;27;20484;-70
2023/10/30 10:18:28;;;;;;;0.10;0.10;;;12.10;99.90;;;;;;5094883;28;20126;-69
2023/10/30 10:21:00;;;;;;;0.20;0.20;;;12.20;99.90;;;;;;5062576;28;20478;-69
2023/10/30 10:23:31;;;;;;;0.43;0.20;;;12.20;99.90;;;;;;5115279;27;20393;-69
2023/10/30 10:25:58;;;;;;;0.35;0.35;;;12.20;99.90;;;;;;5084658;28;20080;-69
2023/10/30 10:28:25;;;;;;;0.30;0.30;;;12.30;99.90;;;;;;5097319;27;20123;-70
2023/10/30 10:30:53;;;;;;;0.22;0.22;;;12.30;99.90;;;;;;5085096;28;20040;-70
2023/10/30 10:33:24;;;;;;;1.48;0.93;;;12.40;99.90;;;;;;5079694;28;20039;-70
2023/10/30 10:36:03;;;;;;;0.20;0.20;;;12.50;99.90;;;;;;5117054;27;20123;-70
2023/10/30 10:38:30;;;;;;;0.00;0.00;;;12.70;99.90;;;;;;5084163;27;20385;-70
2023/10/30 10:40:56;;;;;;;0.00;0.00;;;12.80;99.90;;;;;;5069872;28;20055;-71
2023/10/30 10:43:23;;;;;;;3.67;0.77;;;12.90;99.90;;;;;;5078157;28;20561;-70
2023/10/30 10:45:51;;;;;;;0.10;0.10;;;13.00;99.90;;;;;;5077004;28;20696;-70
2023/10/30 10:48:18;;;;;;;0.10;0.10;;;13.00;99.90;;;;;;5076794;27;20048;-70
2023/10/30 10:50:44;;;;;;;0.30;0.20;;;13.00;99.90;;;;;;5076070;28;20035;-70
2023/10/30 10:53:11;;;;;;;0.52;0.52;;;13.10;99.90;;;;;;5077133;28;20031;-69
2023/10/30 10:55:40;;;;;;;0.10;0.10;;;13.00;99.90;;;;;;5091916;27;20489;-69
2023/10/30 10:58:14;;;;;;;0.35;0.35;;;13.10;99.90;;;;;;5090635;27;20043;-71
2023/10/30 11:00:51;;;;;;;0.52;0.20;;;13.10;99.90;;;;;;5111467;27;20164;-70
2023/10/30 11:03:18;;;;;;;0.47;0.20;;;13.20;99.90;;;;;;5086681;28;20596;-71
2023/10/30 11:05:46;;;;;;;0.10;0.10;;;13.20;99.90;;;;;;5103774;28;20352;-70
2023/10/30 11:08:14;;;;;;;0.55;0.50;;;13.20;99.90;;;;;;5081808;28;20035;-69
2023/10/30 11:10:48;;;;;;;0.00;0.00;;;13.10;99.90;;;;;;5079547;27;20040;-69
2023/10/30 11:13:42;;;;;;;0.63;0.63;;;13.20;99.90;;;;;;5112350;27;20035;-69
2023/10/30 11:16:21;;;;;;;0.10;0.10;;;13.10;99.90;;;;;;5076386;28;20035;-69
2023/10/30 11:18:50;;;;;;;0.10;0.10;;;13.00;99.90;;;;;;5115298;27;20043;-69
2023/10/30 11:21:16;;;;;;;1.02;0.85;;;12.90;99.90;;;;;;5079447;28;20044;-69
2023/10/30 11:23:44;;;;;;;0.30;0.30;;;12.90;99.90;;;;;;5085264;28;20054;-69
2023/10/30 11:26:11;;;;;;;0.08;0.03;;;12.80;99.90;;;;;;5103928;28;20040;-68
2023/10/30 11:28:37;;;;;;;0.52;0.52;;;12.80;99.90;;;;;;5099900;28;20127;-69
2023/10/30 11:31:08;;;;;;;0.20;0.20;;;12.90;99.90;;;;;;5119477;27;20541;-69
2023/10/30 11:33:35;;;;;;;0.32;0.32;;;13.00;99.90;;;;;;5079851;28;20050;-69
2023/10/30 11:36:16;;;;;;;0.20;0.13;;;13.10;99.90;;;;;;5084140;28;20096;-69
2023/10/30 11:38:59;;;;;;;0.15;0.15;;;13.20;99.90;;;;;;5122710;27;20039;-68
2023/10/30 11:41:27;;;;;;;0.10;0.10;;;13.30;99.90;;;;;;5060331;28;20040;-68
2023/10/30 11:44:10;;;;;;;0.08;0.08;;;13.40;99.90;;;;;;5091375;28;20046;-69
2023/10/30 11:46:39;;;;;;;;;;;13.40;99.90;;;;;;5073402;28;20059;-69
2023/10/30 11:49:19;;;;;;;0.17;0.17;;;13.50;99.90;;;;;;5088259;27;19938;-69
2023/10/30 11:51:46;;;;;;;0.20;0.20;;;13.50;99.90;;;;;;5090471;27;20049;-68
2023/10/30 11:54:21;;;;;;;0.25;0.25;;;13.40;99.90;;;;;;5090519;27;21212;-69
2023/10/30 11:56:48;;;;;;;1.25;0.43;;;13.50;99.90;;;;;;5115320;27;20043;-69
2023/10/30 11:59:15;;;;;;;2.17;0.10;;;13.40;99.90;;;;;;5088118;27;20039;-68
2023/10/30 12:01:42;;;;;;;1.95;1.85;;;13.50;99.90;;;;;;5115375;27;20039;-68
2023/10/30 12:04:07;;;;;;;0.52;0.40;;;13.50;99.90;;;;;;5088800;27;20050;-69
2023/10/30 12:06:33;;;;;;;1.65;1.35;;;13.50;99.90;;;;;;5089737;28;20040;-68
2023/10/30 12:08:59;;;;;;;0.25;0.20;;;13.60;99.90;;;;;;5070339;28;20036;-69
2023/10/30 12:11:24;;;;;;;0.10;0.10;;;13.60;99.90;;;;;;5076791;27;20091;-69
2023/10/30 12:13:51;;;;;;;0.95;0.30;;;13.60;99.90;;;;;;5082548;28;20039;-69
2023/10/30 12:16:16;;;;;;;0.10;0.10;;;13.70;99.90;;;;;;5077807;28;20069;-69
2023/10/30 12:18:42;;;;;;;0.30;0.30;;;13.70;99.90;;;;;;5080989;28;20035;-69
2023/10/30 12:21:07;;;;;;;0.82;0.57;;;13.70;99.90;;;;;;5065283;28;20092;-69
2023/10/30 12:23:33;;;;;;;0.13;0.13;;;13.70;99.90;;;;;;5075239;28;20039;-68
2023/10/30 12:26:05;;;;;;;0.17;0.17;;;13.70;99.90;;;;;;5083495;28;20062;-69
2023/10/30 12:28:38;;;;;;;0.15;0.15;;;13.70;99.90;;;;;;5074412;28;20047;-68
2023/10/30 12:31:20;;;;;;;0.20;0.20;;;13.80;99.90;;;;;;5076583;28;20063;-68
2023/10/30 12:33:46;;;;;;;0.10;0.10;;;13.80;99.90;;;;;;5079406;28;20397;-69
2023/10/30 12:36:12;;;;;;;0.20;0.15;;;13.90;99.90;;;;;;5076139;28;20109;-70
2023/10/30 12:38:38;;;;;;;0.43;0.30;;;13.90;99.90;;;;;;5076897;28;20036;-68
2023/10/30 12:41:06;;;;;;;0.45;0.45;;;13.80;99.90;;;;;;5072735;28;20036;-68
2023/10/30 12:43:41;;;;;;;0.10;0.10;;;13.90;99.90;;;;;;5092962;28;20116;-68
2023/10/30 12:46:08;;;;;;;1.05;0.45;;;13.80;99.90;;;;;;5112245;28;20044;-69
2023/10/30 12:48:34;;;;;;;0.28;0.28;;;13.80;99.90;;;;;;5077470;28;20043;-68
2023/10/30 12:51:00;;;;;;;0.30;0.30;;;13.80;99.90;;;;;;5077264;28;20505;-68